GOOYGLRB

Guest
Details From GOOY - Dakar Leopold Sedar Senghor Intl
To GLRB - MONROVIA ROBERTS INTL
Flight Number -
Tags generated
Created
Modified
Stats Distance 665 nm / 1,232 km
Max Altitude 35,000 ft / 10,668 m
Waypoints 12
Social Downloads 0
Likes 0
Share VATSIM

Download

Looking for another format? Having issues loading an existing format? Contact us
Advertisement - Login to hide

Notes

Basic altitude profile: - Ascent Rate: 2500ft/min - Ascent Speed: 250kts - Cruise Altitude: 35000ft - Cruise Speed: 420kts - Descent Rate: 1500ft/min - Descent Speed: 250kts Options: - Use NATs: yes - Use PACOTS: yes - Use low airways: yes - Use high airways: yes

Route

GOOY YF B600F ND UB600 TEKTO B600 ROB GLRB

ID Type Via Altitude Latitude Longitude Leg Dist Tot Dist Heading (true) Name
O GOOY APT - 0 ft / 0 m 14.73971˚ -17.49023˚ - 0 nm - Dakar Leopold Sedar Senghor Intl
YF VOR - 300 ft / 91 m 14.74483˚ -17.47478˚ 0 nm 0 nm 71° / 71° DAKAR VOR-DME
ND NDB B600F (AWY-LO) 23,500 ft / 7,163 m 13.34538˚ -16.65744˚ 96 nm 97 nm 150° / 151° BANJUL NDB
KOMOR FIX UB600 (AWY-HI) 35,000 ft / 10,668 m 12.43333˚ -15.91500˚ 69 nm 167 nm 141° / 142° -
SESEL FIX UB600 (AWY-HI) 35,000 ft / 10,668 m 11.16667˚ -14.89333˚ 96 nm 264 nm 142° / 142° -
KIRTI FIX UB600 (AWY-HI) 35,000 ft / 10,668 m 10.69979˚ -14.53319˚ 35 nm 299 nm 143° / 143° -
AXIRO FIX UB600 (AWY-HI) 35,000 ft / 10,668 m 10.09985˚ -14.03318˚ 46 nm 346 nm 141° / 141° -
GIA VOR UB600 (AWY-HI) 35,000 ft / 10,668 m 9.56798˚ -13.61969˚ 40 nm 386 nm 143° / 143° CONAKRY VOR-DME
AGSIL FIX UB600 (AWY-HI) 35,000 ft / 10,668 m 8.83462˚ -12.89248˚ 61 nm 448 nm 136° / 136° -
TEKTO FIX UB600 (AWY-HI) 27,300 ft / 8,321 m 7.81672˚ -11.89981˚ 84 nm 532 nm 136° / 136° -
ROB VOR B600 (AWY-LO) 5,000 ft / 1,524 m 6.23954˚ -10.35828˚ 131 nm 664 nm 136° / 136° MONROVIA ROBERTS VOR-DME
O GLRB APT - 0 ft / 0 m 6.23379˚ -10.36231˚ 0 nm 665 nm 215° / 215° MONROVIA ROBERTS INTL

Altitude Profile

Advertisement - Login to hide

Weather


0- 5 10 15 20 25 30 35+ Temperature / ° C

Clouds and Precipitation
Forecast for 2017-12-14 00:00 UTC. Updated an hour ago

Ground ~20,000 ft ~40,000 ft Winds

GOOY

Details ICAO GOOY (DKR)
Name Dakar Leopold Sedar Senghor Intl
Region Senegal
Timezone Africa/Dakar (UTC+0.0)
Stats Elevation 85 ft / 26 m (AMSL)
Location 14.739711° -17.490226°
Runways 2
Magnetic Variation 7.348° W

METAR

GOOY 140000Z 02011KT 8000 NSC 22/16 Q1015

Decode

TAF

TAF GOOY 132330Z 1400/1506 02015KT 8000 NSC= TAF GBYD 132330Z 1400/1506 02010KT 8000 NSC

Decode

Departure Runways

ID Width Length Bearing (true) Bearing (mag) Surface Threshold Offset Overrun Length
03 98 ft / 30 m 4,921 ft / 1,500 m 22.31° 29.66° Asphalt 0 ft / 0 m 98 ft / 30 m
18 148 ft / 45 m 11,511 ft / 3,509 m 172.57° 179.92° Asphalt 525 ft / 160 m 197 ft / 60 m
21 98 ft / 30 m 4,921 ft / 1,500 m 202.31° 209.66° Asphalt 0 ft / 0 m 1,590 ft / 485 m
36 148 ft / 45 m 11,511 ft / 3,509 m 352.57° 359.92° Asphalt 0 ft / 0 m 197 ft / 60 m

GLRB

Details ICAO GLRB (ROB)
Name MONROVIA ROBERTS INTL
Region Liberia
Timezone Africa/Monrovia (UTC+0.0)
Stats Elevation 31 ft / 9 m (AMSL)
Location 6.233790° -10.362312°
Runways 1
Magnetic Variation 6.704° W

METAR

GLRB 132330Z 00000KT 4000 BR SCT003 25/23 Q1012

Decode

TAF

TAF TAF GLRB 132200Z 1400/1506 00000KT 4000 BR FEW004 TEMPO 1401/1405 03003KT NSC BECMG 1406/1408 2000 BR BKN005

Decode

Destination Runways

ID Width Length Bearing (true) Bearing (mag) Surface Threshold Offset Overrun Length
04 150 ft / 46 m 11,029 ft / 3,362 m 30.94° 37.64° Asphalt 0 ft / 0 m 0 ft / 0 m
22 150 ft / 46 m 11,029 ft / 3,362 m 210.94° 217.64° Asphalt 1,200 ft / 366 m 0 ft / 0 m

Popular Alternatives